Kennebunk, ME (04043)

4:08 AM EDT on March 29, 2017 (GMT -0400)
Kennebunk | | Change Station

Elev 65 ft 43.39 °N, 70.54 °W | Updated 19 minutes ago

Rain
Rain
36.3 °F
Feels Like 36 °F
N
0.6
Wind Variable Wind from NW
Gusts 1.9 mph

Today
High -- | Low -- °F
--% Chance of Precip.
Yesterday
High -- | Low -- °F
Precip. -- in
Pressure 30.00 in
Visibility 7.0 miles
Clouds Mostly Cloudy 400 ft
Mostly Cloudy 700 ft
Overcast 2600 ft
Windchill 36 °F
Dew Point 33 °F
Humidity 87%
Rainfall 0.08 in
Snow Depth Not available.
6:28 AM 7:05 PM
New Moon, 2% visible
METAR KSFM 290756Z AUTO 36006KT 7SM -RA BKN004 BKN007 OVC026 01/01 A2997 RMK AO2 UPE37RAB37 SLP159 T00110011 FZRANO PNO $
Pressure 30.00 in
Visibility 7.0 miles
Clouds Mostly Cloudy 400 ft
Mostly Cloudy 700 ft
Overcast 2600 ft
Windchill 36 °F
Dew Point 33 °F
Humidity 87%
Rainfall 0.08 in
Snow Depth Not available.
6:28 AM 7:05 PM
New Moon, 2% visible
METAR KSFM 290756Z AUTO 36006KT 7SM -RA BKN004 BKN007 OVC026 01/01 A2997 RMK AO2 UPE37RAB37 SLP159 T00110011 FZRANO PNO $

Get Severe Weather Alerts

Thanks for signing up!

Be on the lookout for a verification email in your inbox.

You'll start receiving the daily forecast at 8 AM.

×

10-Day Weather Forecast

Almanac

Astronomy

Mar. 29, 2017 Rise Set
Actual Time
Civil Twilight
Nautical Twilight
Astronomical Twilight
Moon
Length of Visible Light
Length of Day
Tomorrow will be .
, % of the Moon is Illuminated

Today's Extremes

State Highs State Lows

Community

WunderPhotos

Upload Photos

1,962,540 photos uploaded!

WunderBlog® & News

Nearby

Air Quality

  Air Quality AQ Index Pollutant
Not available.

Snow Depth

Station Depth Elevation

Earthquake Activity

City Distance Mag. Time & Date
Minimum magnitude displayed is 2.5.

Earthquake Activity

City Distance Mag. Time & Date
Minimum magnitude displayed is 2.5.

Coastal Water Temperatures

Place Temperature

Stations

Nearby Weather Stations

Station Location Temp. Windchill Dew Point Humidity Wind Precip. Elev Updated Type
                   

Watches & Warnings

There are currently no watches in effect.